Time;durP1;ratioP1;P1;durP2;ratioP2;P2;SDS_P1;SDS_P2;PMS_P1;PMS_P2;Temp;Humidity;BMP_temperature;BMP_pressure;BME280_temperature;BME280_humidity;BME280_pressure;Samples;Min_cycle;Max_cycle;Signal;HPM_P1;HPM_P2
2023/05/23 00:01:48;;;;;;;12.53;11.37;;;18.90;91.70;;;;;;5113609;28;20438;-56
2023/05/23 00:04:17;;;;;;;12.20;11.07;;;18.90;91.60;;;;;;5113807;28;20569;-56
2023/05/23 00:06:45;;;;;;;11.97;10.97;;;18.90;91.60;;;;;;5110118;28;20497;-57
2023/05/23 00:09:13;;;;;;;13.10;10.80;;;18.90;91.70;;;;;;5093646;28;20941;-56
2023/05/23 00:11:43;;;;;;;12.87;11.70;;;18.90;91.70;;;;;;5093034;28;20533;-56
2023/05/23 00:14:12;;;;;;;11.37;10.30;;;18.90;91.90;;;;;;5093375;28;20446;-56
2023/05/23 00:16:41;;;;;;;11.80;10.70;;;18.90;91.80;;;;;;5092958;28;21093;-56
2023/05/23 00:19:08;;;;;;;13.60;12.37;;;18.90;92.10;;;;;;5093210;28;20899;-56
2023/05/23 00:21:35;;;;;;;12.57;11.37;;;18.80;92.20;;;;;;5093243;28;20448;-56
2023/05/23 00:24:03;;;;;;;14.43;12.00;;;18.80;92.30;;;;;;5093151;28;20443;-56
2023/05/23 00:26:30;;;;;;;12.83;11.53;;;18.80;92.50;;;;;;5093201;28;20473;-56
2023/05/23 00:28:58;;;;;;;13.10;11.90;;;18.70;92.50;;;;;;5093260;28;20522;-56
2023/05/23 00:31:25;;;;;;;12.47;11.30;;;18.70;92.80;;;;;;5092906;28;20964;-56
2023/05/23 00:33:51;;;;;;;13.30;12.10;;;18.70;93.00;;;;;;5093141;28;20444;-56
2023/05/23 00:36:18;;;;;;;14.10;12.80;;;18.70;93.20;;;;;;5092794;28;20993;-56
2023/05/23 00:38:45;;;;;;;14.47;12.97;;;18.70;93.30;;;;;;5093020;28;20443;-56
2023/05/23 00:41:12;;;;;;;13.80;12.60;;;18.70;93.50;;;;;;5093046;28;20452;-56
2023/05/23 00:43:39;;;;;;;17.80;12.93;;;18.70;93.70;;;;;;5092789;28;20494;-56
2023/05/23 00:46:07;;;;;;;14.73;13.20;;;18.60;93.80;;;;;;5093207;28;20483;-56
2023/05/23 00:48:34;;;;;;;15.73;13.63;;;18.60;93.90;;;;;;5092646;28;20815;-56
2023/05/23 00:51:02;;;;;;;14.57;13.17;;;18.60;94.10;;;;;;5092920;28;20443;-56
2023/05/23 00:53:29;;;;;;;14.23;12.93;;;18.50;94.40;;;;;;5093017;28;20452;-56
2023/05/23 00:55:55;;;;;;;14.17;12.97;;;18.60;94.50;;;;;;5092551;28;20846;-56
2023/05/23 00:58:23;;;;;;;14.77;13.27;;;18.50;94.50;;;;;;5092893;28;20501;-56
2023/05/23 01:00:53;;;;;;;15.27;13.30;;;18.60;94.50;;;;;;5095739;28;20449;-56
2023/05/23 01:03:22;;;;;;;11.47;10.43;;;18.60;94.70;;;;;;5105478;28;20885;-55
2023/05/23 01:05:49;;;;;;;11.33;10.13;;;18.60;94.70;;;;;;5092638;28;20490;-56
2023/05/23 01:08:15;;;;;;;9.63;8.67;;;18.50;94.40;;;;;;5092812;28;20452;-56
2023/05/23 01:10:42;;;;;;;8.30;7.50;;;18.60;93.90;;;;;;5092794;28;20553;-56
2023/05/23 01:13:18;;;;;;;6.60;6.10;;;18.60;93.70;;;;;;5092813;28;20802;-56
2023/05/23 01:15:52;;;;;;;6.20;5.50;;;18.50;92.50;;;;;;5092673;28;20463;-55
2023/05/23 01:18:29;;;;;;;5.33;4.93;;;18.40;92.00;;;;;;5093098;28;20466;-56
2023/05/23 01:21:01;;;;;;;5.63;5.13;;;18.40;92.00;;;;;;5096621;28;20420;-56
2023/05/23 01:24:01;;;;;;;6.57;6.07;;;18.40;91.90;;;;;;5096398;28;20485;-56
2023/05/23 01:26:47;;;;;;;5.60;5.10;;;18.30;92.20;;;;;;5095907;28;21054;-56
2023/05/23 01:29:24;;;;;;;6.10;5.60;;;18.30;92.00;;;;;;5096365;28;20450;-56
2023/05/23 01:31:55;;;;;;;7.43;5.43;;;18.30;92.00;;;;;;5096428;28;20424;-56
2023/05/23 01:34:22;;;;;;;5.73;5.30;;;18.30;91.90;;;;;;5096362;28;20466;-56
2023/05/23 01:36:50;;;;;;;5.60;5.10;;;18.30;92.40;;;;;;5096114;28;20474;-56
2023/05/23 01:39:17;;;;;;;5.87;5.43;;;18.30;91.90;;;;;;5096190;28;20451;-56
2023/05/23 01:41:44;;;;;;;6.23;5.67;;;18.30;91.80;;;;;;5096053;28;20461;-56
2023/05/23 01:44:10;;;;;;;6.90;6.30;;;18.20;92.20;;;;;;5096286;28;20473;-56
2023/05/23 01:46:40;;;;;;;7.27;6.57;;;18.10;92.30;;;;;;5095827;28;20483;-56
2023/05/23 01:49:10;;;;;;;6.90;6.30;;;18.10;92.50;;;;;;5096048;28;20505;-56
2023/05/23 01:51:37;;;;;;;8.13;6.30;;;18.20;92.60;;;;;;5096390;28;20420;-56
2023/05/23 01:54:04;;;;;;;6.93;6.20;;;18.20;92.50;;;;;;5095829;28;20849;-56
2023/05/23 01:56:31;;;;;;;6.87;6.17;;;18.20;92.60;;;;;;5095655;28;20455;-56
2023/05/23 01:58:58;;;;;;;6.93;6.33;;;18.20;92.60;;;;;;5095730;28;20484;-56
2023/05/23 02:01:24;;;;;;;7.77;6.97;;;18.00;93.00;;;;;;5095730;28;20444;-56
2023/05/23 02:03:53;;;;;;;7.90;7.20;;;18.10;93.30;;;;;;5095667;28;20451;-56
2023/05/23 02:06:20;;;;;;;7.43;6.50;;;18.00;93.40;;;;;;5095148;28;20482;-56
2023/05/23 02:08:46;;;;;;;7.37;6.77;;;18.00;93.40;;;;;;5095569;28;20450;-56
2023/05/23 02:11:13;;;;;;;8.13;7.33;;;18.00;93.40;;;;;;5095588;28;20508;-56
2023/05/23 02:13:40;;;;;;;7.57;6.80;;;18.00;93.30;;;;;;5095156;28;20448;-56
2023/05/23 02:16:06;;;;;;;7.57;6.93;;;18.00;93.40;;;;;;5095033;28;20977;-56
2023/05/23 02:18:36;;;;;;;7.93;6.60;;;18.00;93.40;;;;;;5094956;28;20490;-55
2023/05/23 02:21:05;;;;;;;7.07;6.40;;;18.00;93.50;;;;;;5095389;28;20538;-56
2023/05/23 02:23:31;;;;;;;8.37;7.50;;;18.00;93.30;;;;;;5094942;28;20840;-56
2023/05/23 02:25:58;;;;;;;8.33;7.43;;;18.00;93.40;;;;;;5095226;28;20494;-56
2023/05/23 02:28:25;;;;;;;7.83;7.03;;;18.00;93.40;;;;;;5095196;28;20825;-56
2023/05/23 02:30:51;;;;;;;7.20;6.60;;;18.00;93.10;;;;;;5095356;28;20820;-56
2023/05/23 02:33:18;;;;;;;7.60;6.87;;;18.00;93.10;;;;;;5095160;28;20454;-56
2023/05/23 02:35:46;;;;;;;8.33;6.90;;;18.10;93.30;;;;;;5095024;28;20460;-56
2023/05/23 02:38:14;;;;;;;6.93;6.33;;;18.10;92.90;;;;;;5095196;28;20451;-56
2023/05/23 02:40:41;;;;;;;9.77;6.90;;;18.10;92.80;;;;;;5095033;28;20450;-56
2023/05/23 02:43:07;;;;;;;7.67;6.20;;;18.10;92.70;;;;;;5097221;28;20448;-56
2023/05/23 02:45:34;;;;;;;9.13;6.97;;;18.10;92.60;;;;;;5103629;28;20478;-55
2023/05/23 02:48:01;;;;;;;7.57;6.87;;;18.00;92.50;;;;;;5115272;28;20516;-56
2023/05/23 02:50:27;;;;;;;8.30;7.50;;;18.00;92.70;;;;;;5100249;28;20467;-56
2023/05/23 02:52:54;;;;;;;11.20;8.27;;;18.00;92.70;;;;;;5094788;28;20456;-56
2023/05/23 02:55:22;;;;;;;6.57;5.93;;;18.00;92.60;;;;;;5111247;27;20462;-56
2023/05/23 02:57:50;;;;;;;7.27;6.67;;;17.90;92.70;;;;;;5114959;28;20450;-56
2023/05/23 03:00:17;;;;;;;11.00;6.23;;;17.90;92.60;;;;;;5116349;28;20446;-56
2023/05/23 03:02:44;;;;;;;9.70;6.50;;;17.90;92.70;;;;;;5102940;28;20787;-55
2023/05/23 03:05:10;;;;;;;7.07;6.47;;;17.90;92.90;;;;;;5097143;28;20574;-56
2023/05/23 03:07:37;;;;;;;7.43;6.43;;;17.80;93.00;;;;;;5094599;28;20867;-56
2023/05/23 03:10:04;;;;;;;8.03;7.23;;;17.80;93.10;;;;;;5094568;28;20451;-56
2023/05/23 03:12:32;;;;;;;7.47;6.40;;;17.80;93.10;;;;;;5094568;28;20455;-56
2023/05/23 03:14:59;;;;;;;7.60;6.80;;;17.80;93.00;;;;;;5094353;28;20528;-56
2023/05/23 03:17:26;;;;;;;8.13;7.30;;;17.80;93.10;;;;;;5096555;28;20465;-56
2023/05/23 03:19:52;;;;;;;8.20;6.20;;;17.80;93.10;;;;;;5097294;28;20467;-56
2023/05/23 03:22:19;;;;;;;8.30;6.93;;;17.80;93.20;;;;;;5095099;28;20448;-56
2023/05/23 03:24:46;;;;;;;11.97;6.80;;;17.80;93.40;;;;;;5094193;28;22195;-56
2023/05/23 03:27:13;;;;;;;8.13;6.60;;;17.80;93.30;;;;;;5094107;28;20494;-56
2023/05/23 03:29:41;;;;;;;7.60;6.43;;;17.80;93.50;;;;;;5094116;28;20444;-55
2023/05/23 03:32:08;;;;;;;6.90;6.20;;;17.80;93.50;;;;;;5094030;28;20497;-56
2023/05/23 03:34:35;;;;;;;7.87;6.63;;;17.80;93.60;;;;;;5093910;28;20488;-56
2023/05/23 03:37:02;;;;;;;8.73;7.50;;;17.70;93.90;;;;;;5093978;28;20443;-56
2023/05/23 03:39:28;;;;;;;9.10;6.60;;;17.70;94.20;;;;;;5093889;28;20448;-56
2023/05/23 03:41:55;;;;;;;7.70;6.80;;;17.70;94.10;;;;;;5093153;28;20824;-56
2023/05/23 03:44:22;;;;;;;9.10;6.67;;;17.60;94.10;;;;;;5093810;28;20454;-56
2023/05/23 03:46:49;;;;;;;8.30;7.40;;;17.60;94.10;;;;;;5093792;28;20537;-56
2023/05/23 03:49:16;;;;;;;8.00;7.10;;;17.60;94.30;;;;;;5093737;28;20448;-56
2023/05/23 03:51:43;;;;;;;7.77;6.70;;;17.50;94.30;;;;;;5093691;28;20559;-56
2023/05/23 03:54:10;;;;;;;16.03;7.10;;;17.50;94.20;;;;;;5093709;28;20451;-56
2023/05/23 03:56:36;;;;;;;11.23;8.00;;;17.50;94.60;;;;;;5093211;28;20836;-56
2023/05/23 03:59:03;;;;;;;8.47;6.60;;;17.50;94.60;;;;;;5094065;28;20451;-56
2023/05/23 04:01:30;;;;;;;6.73;6.00;;;17.40;94.30;;;;;;5093842;28;20440;-56
2023/05/23 04:03:59;;;;;;;8.73;6.87;;;17.40;94.50;;;;;;5093207;28;20443;-56
2023/05/23 04:06:26;;;;;;;7.97;6.70;;;17.40;94.40;;;;;;5093623;28;20488;-56
2023/05/23 04:08:52;;;;;;;8.70;6.80;;;17.50;94.40;;;;;;5092987;28;20954;-56
2023/05/23 04:11:20;;;;;;;7.87;6.40;;;17.40;94.50;;;;;;5093006;28;20968;-56
2023/05/23 04:13:47;;;;;;;8.23;6.73;;;17.40;94.50;;;;;;5093423;28;20451;-56
2023/05/23 04:16:14;;;;;;;6.63;5.77;;;17.50;94.40;;;;;;5093261;28;20468;-56
2023/05/23 04:18:42;;;;;;;10.53;5.93;;;17.40;94.10;;;;;;5093316;28;20450;-56
2023/05/23 04:21:10;;;;;;;7.23;6.50;;;17.40;94.30;;;;;;5093330;28;20866;-56
2023/05/23 04:23:37;;;;;;;8.23;6.90;;;17.40;94.40;;;;;;5093333;28;20443;-56
2023/05/23 04:26:04;;;;;;;9.70;6.63;;;17.40;94.50;;;;;;5093117;28;20486;-56
2023/05/23 04:28:31;;;;;;;8.10;6.90;;;17.40;94.40;;;;;;5093304;28;20440;-56
2023/05/23 04:30:58;;;;;;;8.50;7.60;;;17.40;94.30;;;;;;5093259;28;20448;-56
2023/05/23 04:33:27;;;;;;;8.97;7.73;;;17.40;94.40;;;;;;5093250;28;20444;-56
2023/05/23 04:35:53;;;;;;;10.00;8.03;;;17.40;94.60;;;;;;5093131;28;20464;-56
2023/05/23 04:38:23;;;;;;;8.37;6.90;;;17.30;94.40;;;;;;5093204;28;20891;-56
2023/05/23 04:40:51;;;;;;;11.23;7.97;;;17.30;94.60;;;;;;5093294;28;20523;-56
2023/05/23 04:43:18;;;;;;;11.63;8.70;;;17.30;94.70;;;;;;5093181;28;20454;-56
2023/05/23 04:45:45;;;;;;;8.43;7.63;;;17.40;94.90;;;;;;5092935;28;20506;-56
2023/05/23 04:48:15;;;;;;;8.93;8.03;;;17.30;94.70;;;;;;5093080;28;20839;-56
2023/05/23 04:50:42;;;;;;;10.07;7.67;;;17.30;94.80;;;;;;5093152;28;20481;-56
2023/05/23 04:53:09;;;;;;;7.53;6.73;;;17.30;94.80;;;;;;5093369;28;20448;-56
2023/05/23 04:55:37;;;;;;;13.43;8.60;;;17.40;94.90;;;;;;5096938;28;20516;-56
2023/05/23 04:58:03;;;;;;;11.57;8.10;;;17.30;94.70;;;;;;5097443;28;20921;-56
2023/05/23 05:00:30;;;;;;;10.43;8.00;;;17.30;95.00;;;;;;5096877;28;20451;-56
2023/05/23 05:02:57;;;;;;;11.50;8.90;;;17.30;95.00;;;;;;5096866;28;20470;-56
2023/05/23 05:05:23;;;;;;;9.00;7.60;;;17.40;95.10;;;;;;5096449;28;20463;-56
2023/05/23 05:07:50;;;;;;;11.43;7.97;;;17.40;94.70;;;;;;5096428;28;20448;-56
2023/05/23 05:10:17;;;;;;;11.73;8.70;;;17.40;94.80;;;;;;5096232;28;20870;-56
2023/05/23 05:12:48;;;;;;;9.43;8.40;;;17.40;94.90;;;;;;5096633;28;20432;-56
2023/05/23 05:15:16;;;;;;;9.20;8.30;;;17.40;95.20;;;;;;5096760;28;20517;-56
2023/05/23 05:17:43;;;;;;;13.93;9.93;;;17.40;94.90;;;;;;5096607;28;20491;-56
2023/05/23 05:20:10;;;;;;;9.47;8.57;;;17.40;94.90;;;;;;5096444;28;20497;-56
2023/05/23 05:22:39;;;;;;;10.27;8.47;;;17.50;95.00;;;;;;5096467;28;20477;-56
2023/05/23 05:25:07;;;;;;;9.27;8.37;;;17.50;94.90;;;;;;5096393;28;20475;-56
2023/05/23 05:27:34;;;;;;;10.57;9.47;;;17.50;94.70;;;;;;5096012;28;20845;-56
2023/05/23 05:30:04;;;;;;;10.83;9.03;;;17.60;94.80;;;;;;5096339;28;20456;-56
2023/05/23 05:32:32;;;;;;;9.53;7.80;;;17.60;94.70;;;;;;5096070;28;20906;-56
2023/05/23 05:34:59;;;;;;;10.40;8.27;;;17.60;94.60;;;;;;5096398;28;20470;-56
2023/05/23 05:37:26;;;;;;;12.10;8.57;;;17.60;94.70;;;;;;5096432;28;20443;-56
2023/05/23 05:39:53;;;;;;;10.20;8.40;;;17.60;94.80;;;;;;5096136;28;20956;-56
2023/05/23 05:42:20;;;;;;;10.50;8.00;;;17.60;94.90;;;;;;5096358;28;20448;-56
2023/05/23 05:44:46;;;;;;;11.17;7.93;;;17.60;94.80;;;;;;5096551;28;20450;-56
2023/05/23 05:47:15;;;;;;;9.63;8.67;;;17.70;94.70;;;;;;5096025;28;20482;-56
2023/05/23 05:49:41;;;;;;;9.60;7.90;;;17.70;94.40;;;;;;5095770;28;20452;-56
2023/05/23 05:52:08;;;;;;;8.77;7.80;;;17.80;94.50;;;;;;5095996;28;20447;-56
2023/05/23 05:54:36;;;;;;;13.90;7.97;;;17.80;94.40;;;;;;5095655;28;20937;-56
2023/05/23 05:57:03;;;;;;;9.13;8.23;;;17.80;94.20;;;;;;5096021;28;20448;-56
2023/05/23 05:59:29;;;;;;;12.73;8.70;;;17.90;94.10;;;;;;5095837;28;20443;-56
2023/05/23 06:01:56;;;;;;;13.07;7.80;;;17.90;94.10;;;;;;5095841;28;20447;-56
2023/05/23 06:04:24;;;;;;;12.40;7.97;;;17.90;93.90;;;;;;5095455;28;20450;-56
2023/05/23 06:06:51;;;;;;;12.73;8.50;;;17.90;93.90;;;;;;5095461;28;20479;-56
2023/05/23 06:09:18;;;;;;;10.67;8.73;;;17.90;93.90;;;;;;5095567;28;20444;-56
2023/05/23 06:11:45;;;;;;;11.37;8.47;;;17.90;93.90;;;;;;5095242;28;20548;-56
2023/05/23 06:14:12;;;;;;;10.67;8.07;;;17.80;94.00;;;;;;5095632;28;20455;-56
2023/05/23 06:16:39;;;;;;;10.87;8.40;;;17.80;94.00;;;;;;5095411;28;20463;-56
2023/05/23 06:19:05;;;;;;;11.33;8.37;;;17.70;94.30;;;;;;5095527;28;20443;-56
2023/05/23 06:21:33;;;;;;;11.80;8.13;;;17.70;94.40;;;;;;5095318;28;20440;-56
2023/05/23 06:24:00;;;;;;;8.80;6.83;;;17.60;94.50;;;;;;5095389;28;20841;-56
2023/05/23 06:26:27;;;;;;;9.10;7.70;;;17.60;94.40;;;;;;5095155;28;20484;-56
2023/05/23 06:28:53;;;;;;;7.30;6.63;;;17.70;94.50;;;;;;5095331;28;20452;-56
2023/05/23 06:31:20;;;;;;;9.20;6.83;;;17.70;94.50;;;;;;5095353;28;20452;-56
2023/05/23 06:33:46;;;;;;;8.10;7.10;;;17.70;94.30;;;;;;5095204;28;20443;-55
2023/05/23 06:36:13;;;;;;;8.60;6.80;;;17.60;94.10;;;;;;5095002;28;20464;-56
2023/05/23 06:38:41;;;;;;;10.00;7.20;;;17.60;94.30;;;;;;5095037;28;20859;-56
2023/05/23 06:41:08;;;;;;;10.90;7.33;;;17.60;94.20;;;;;;5095404;28;20497;-56
2023/05/23 06:43:35;;;;;;;11.83;6.47;;;17.60;94.30;;;;;;5094766;28;21070;-56
2023/05/23 06:46:01;;;;;;;9.17;6.60;;;17.70;94.40;;;;;;5095797;28;20463;-56
2023/05/23 06:48:28;;;;;;;11.30;6.67;;;17.70;94.10;;;;;;5094814;28;20447;-56
2023/05/23 06:50:54;;;;;;;7.17;6.40;;;17.70;94.00;;;;;;5094929;28;20443;-56
2023/05/23 06:53:21;;;;;;;6.50;5.90;;;17.70;93.50;;;;;;5094886;28;20509;-56
2023/05/23 06:55:49;;;;;;;8.33;7.53;;;17.70;93.30;;;;;;5094640;28;20533;-56
2023/05/23 06:58:16;;;;;;;9.13;6.77;;;17.70;93.70;;;;;;5094658;28;20436;-56
2023/05/23 07:00:43;;;;;;;6.83;6.03;;;17.70;93.70;;;;;;5094665;28;20443;-56
2023/05/23 07:03:09;;;;;;;7.20;6.00;;;17.60;93.70;;;;;;5094641;28;20455;-56
2023/05/23 07:05:36;;;;;;;7.27;6.37;;;17.70;93.70;;;;;;5094802;28;20468;-56
2023/05/23 07:08:03;;;;;;;7.97;6.07;;;17.70;93.70;;;;;;5099838;28;20533;-56
2023/05/23 07:10:30;;;;;;;7.13;6.20;;;17.70;93.80;;;;;;5101750;28;20516;-56
2023/05/23 07:12:58;;;;;;;8.20;6.30;;;17.70;93.90;;;;;;5097884;28;20452;-56
2023/05/23 07:15:24;;;;;;;7.30;6.53;;;17.80;94.00;;;;;;5094025;28;20470;-56
2023/05/23 07:17:51;;;;;;;10.20;6.73;;;17.80;93.80;;;;;;5093792;28;20945;-56
2023/05/23 07:20:18;;;;;;;11.30;8.87;;;17.80;93.90;;;;;;5094279;28;20474;-56
2023/05/23 07:22:44;;;;;;;14.83;9.20;;;17.80;94.00;;;;;;5094239;28;20454;-56
2023/05/23 07:25:11;;;;;;;9.43;8.43;;;17.80;94.10;;;;;;5094355;28;20468;-56
2023/05/23 07:27:38;;;;;;;15.33;11.90;;;17.80;94.30;;;;;;5094073;28;20484;-56
2023/05/23 07:30:08;;;;;;;16.17;12.87;;;17.80;94.30;;;;;;5094096;28;20447;-56
2023/05/23 07:32:35;;;;;;;11.00;9.80;;;17.70;94.30;;;;;;5094964;28;20447;-56
2023/05/23 07:35:01;;;;;;;9.97;8.60;;;17.80;94.50;;;;;;5093910;28;20471;-56
2023/05/23 07:37:28;;;;;;;11.50;9.47;;;17.80;94.70;;;;;;5093987;28;20960;-56
2023/05/23 07:39:55;;;;;;;11.73;9.37;;;17.80;94.60;;;;;;5094003;28;20463;-56
2023/05/23 07:42:22;;;;;;;15.47;11.00;;;17.70;94.60;;;;;;5093907;28;20451;-56
2023/05/23 07:44:48;;;;;;;14.17;10.10;;;17.60;94.70;;;;;;5094213;28;20464;-56
2023/05/23 07:47:16;;;;;;;15.50;9.53;;;17.60;95.00;;;;;;5093876;28;20487;-56
2023/05/23 07:49:44;;;;;;;13.97;10.00;;;17.60;94.90;;;;;;5093769;28;20497;-56
2023/05/23 07:52:10;;;;;;;19.27;10.20;;;17.60;95.00;;;;;;5093827;28;20483;-56
2023/05/23 07:54:37;;;;;;;12.30;9.63;;;17.60;95.00;;;;;;5093767;28;20458;-56
2023/05/23 07:57:06;;;;;;;20.97;9.70;;;17.60;94.90;;;;;;5093671;28;20470;-56
2023/05/23 07:59:32;;;;;;;13.40;10.23;;;17.60;94.70;;;;;;5093704;28;20451;-56
2023/05/23 08:01:59;;;;;;;17.33;10.30;;;17.50;94.70;;;;;;5093295;28;20963;-56
2023/05/23 08:04:27;;;;;;;11.63;9.77;;;17.30;94.90;;;;;;5093320;28;20946;-56
2023/05/23 08:06:55;;;;;;;16.23;11.00;;;17.30;95.20;;;;;;5093416;28;20480;-56
2023/05/23 08:09:22;;;;;;;19.27;9.73;;;17.30;95.30;;;;;;5093654;28;20479;-56
2023/05/23 08:11:49;;;;;;;11.37;9.73;;;17.30;95.30;;;;;;5093166;28;20459;-56
2023/05/23 08:14:16;;;;;;;12.80;9.00;;;17.40;95.50;;;;;;5094257;28;20450;-56
2023/05/23 08:16:42;;;;;;;12.60;9.60;;;17.40;95.40;;;;;;5093268;28;20478;-56
2023/05/23 08:19:09;;;;;;;12.30;8.80;;;17.40;95.10;;;;;;5093457;28;20447;-56
2023/05/23 08:21:37;;;;;;;17.63;10.43;;;17.40;94.80;;;;;;5093436;28;20452;-56
2023/05/23 08:24:04;;;;;;;12.17;8.13;;;17.40;94.80;;;;;;5093428;28;20816;-56
2023/05/23 08:26:33;;;;;;;18.40;9.23;;;17.40;94.90;;;;;;5093250;28;20493;-56
2023/05/23 08:29:01;;;;;;;16.63;8.30;;;17.40;95.00;;;;;;5096841;28;20481;-56
2023/05/23 08:31:27;;;;;;;13.80;7.70;;;17.40;95.10;;;;;;5097463;28;20447;-56
2023/05/23 08:33:54;;;;;;;16.80;8.33;;;17.30;95.00;;;;;;5097449;28;20452;-57
2023/05/23 08:36:21;;;;;;;17.23;8.63;;;17.20;95.00;;;;;;5097390;28;20470;-57
2023/05/23 08:38:50;;;;;;;11.77;8.00;;;17.20;95.20;;;;;;5097494;28;20473;-57
2023/05/23 08:41:19;;;;;;;16.90;8.03;;;17.20;95.10;;;;;;5097443;28;20451;-56
2023/05/23 08:43:46;;;;;;;16.23;8.30;;;17.30;95.60;;;;;;5097149;28;20937;-57
2023/05/23 08:46:14;;;;;;;10.50;7.60;;;17.30;95.20;;;;;;5096893;28;20981;-57
2023/05/23 08:48:42;;;;;;;11.40;7.50;;;17.30;95.40;;;;;;5097034;28;20515;-57
2023/05/23 08:51:10;;;;;;;11.50;7.90;;;17.30;95.10;;;;;;5097297;28;20447;-57
2023/05/23 08:53:39;;;;;;;13.00;8.03;;;17.30;95.10;;;;;;5097266;28;20447;-57
2023/05/23 08:56:09;;;;;;;18.83;8.30;;;17.20;95.10;;;;;;5097112;28;20503;-57
2023/05/23 08:58:37;;;;;;;9.47;7.23;;;17.20;95.30;;;;;;5098024;28;20428;-57
2023/05/23 09:01:04;;;;;;;15.43;8.20;;;17.10;95.40;;;;;;5097422;28;20461;-57
2023/05/23 09:03:32;;;;;;;13.90;8.17;;;17.10;95.70;;;;;;5097627;28;20949;-57
2023/05/23 09:05:58;;;;;;;16.10;8.10;;;17.00;95.60;;;;;;5097208;28;20472;-57
2023/05/23 09:08:25;;;;;;;12.90;8.30;;;17.10;96.00;;;;;;5096924;28;20549;-57
2023/05/23 09:10:52;;;;;;;13.53;8.50;;;17.30;95.90;;;;;;5096418;28;20470;-57
2023/05/23 09:13:20;;;;;;;8.97;6.57;;;17.60;94.80;;;;;;5096674;28;20452;-57
2023/05/23 09:16:03;;;;;;;13.77;6.50;;;17.80;94.30;;;;;;5096550;28;20486;-56
2023/05/23 09:18:35;;;;;;;11.90;6.03;;;18.10;93.20;;;;;;5096695;28;20430;-57
2023/05/23 09:21:02;;;;;;;12.27;5.63;;;18.20;92.50;;;;;;5096649;28;20432;-57
2023/05/23 09:23:31;;;;;;;8.20;5.50;;;18.50;92.40;;;;;;5096506;28;20447;-57
2023/05/23 09:26:02;;;;;;;9.03;5.30;;;18.70;92.00;;;;;;5096335;28;20460;-56
2023/05/23 09:28:30;;;;;;;9.37;6.40;;;18.90;91.30;;;;;;5096396;28;20471;-57
2023/05/23 09:31:00;;;;;;;8.53;5.00;;;19.00;90.40;;;;;;5096355;28;20455;-57
2023/05/23 09:33:36;;;;;;;8.00;4.80;;;19.00;89.60;;;;;;5096314;28;20455;-57
2023/05/23 09:36:04;;;;;;;19.00;6.27;;;19.00;90.00;;;;;;5096296;28;20499;-57
2023/05/23 09:38:31;;;;;;;13.87;6.60;;;19.00;89.60;;;;;;5096145;28;20517;-57
2023/05/23 09:40:59;;;;;;;22.70;6.57;;;18.80;88.30;;;;;;5095566;28;20451;-57
2023/05/23 09:43:28;;;;;;;6.47;5.83;;;18.70;88.50;;;;;;5096067;28;20458;-57
2023/05/23 09:46:01;;;;;;;12.10;7.17;;;18.60;88.90;;;;;;5096083;28;20832;-57
2023/05/23 09:48:31;;;;;;;9.57;6.83;;;18.50;88.90;;;;;;5095771;28;20976;-57
2023/05/23 09:50:57;;;;;;;10.60;6.47;;;18.50;88.60;;;;;;5095791;28;20447;-56
2023/05/23 09:53:24;;;;;;;11.37;5.80;;;18.50;88.70;;;;;;5095594;28;21041;-57
2023/05/23 09:55:51;;;;;;;14.60;7.13;;;18.40;88.30;;;;;;5095883;28;20529;-57
2023/05/23 09:58:19;;;;;;;8.93;5.80;;;18.40;88.90;;;;;;5095771;28;20475;-57
2023/05/23 10:00:49;;;;;;;8.43;6.37;;;18.40;88.60;;;;;;5095770;28;20439;-57
2023/05/23 10:03:21;;;;;;;8.97;5.43;;;18.40;88.20;;;;;;5095749;28;20505;-57
2023/05/23 10:05:48;;;;;;;11.80;6.00;;;18.40;86.70;;;;;;5095724;28;20464;-57
2023/05/23 10:08:20;;;;;;;7.10;4.97;;;18.30;85.20;;;;;;5095568;28;20479;-57
2023/05/23 10:11:44;;;;;;;8.60;5.60;;;18.30;84.10;;;;;;5095281;28;20491;-57
2023/05/23 10:14:12;;;;;;;6.90;4.77;;;18.40;84.10;;;;;;5081424;28;20504;-56
2023/05/23 10:16:44;;;;;;;9.00;4.70;;;18.60;83.00;;;;;;5095332;28;20467;-57
2023/05/23 10:19:20;;;;;;;8.90;5.00;;;18.80;82.40;;;;;;5095857;28;20442;-57
2023/05/23 10:21:50;;;;;;;5.57;4.97;;;19.10;82.10;;;;;;5095565;28;20431;-56
2023/05/23 10:24:18;;;;;;;9.57;5.27;;;19.30;80.10;;;;;;5095220;28;20424;-57
2023/05/23 10:26:45;;;;;;;6.40;4.77;;;19.50;78.40;;;;;;5095770;28;20467;-57
2023/05/23 10:29:12;;;;;;;8.70;5.07;;;19.60;78.20;;;;;;5095278;28;20475;-56
2023/05/23 10:31:40;;;;;;;12.50;5.37;;;19.70;77.10;;;;;;5095747;28;20452;-57
2023/05/23 10:34:18;;;;;;;7.53;5.03;;;19.60;75.80;;;;;;5095353;28;20451;-57
2023/05/23 10:36:53;;;;;;;7.20;4.50;;;19.60;76.40;;;;;;5095221;28;20472;-56
2023/05/23 10:39:27;;;;;;;5.73;4.37;;;19.60;77.10;;;;;;5095141;28;20431;-57
2023/05/23 10:42:00;;;;;;;11.63;4.70;;;19.80;77.00;;;;;;5095061;28;20446;-56
2023/05/23 10:44:29;;;;;;;5.47;4.70;;;20.50;78.20;;;;;;5095097;28;20424;-56
2023/05/23 10:46:59;;;;;;;5.40;4.90;;;21.70;74.70;;;;;;5094955;28;20448;-57
2023/05/23 10:49:39;;;;;;;6.77;5.27;;;23.10;69.00;;;;;;5095177;28;20517;-56
2023/05/23 10:52:07;;;;;;;7.20;4.17;;;24.40;60.20;;;;;;5093593;28;20913;-57
2023/05/23 10:54:37;;;;;;;7.23;4.90;;;25.40;56.20;;;;;;5094993;28;20853;-57
2023/05/23 10:57:05;;;;;;;6.60;4.97;;;26.40;51.90;;;;;;5094472;28;20796;-56
2023/05/23 10:59:32;;;;;;;6.03;5.17;;;26.60;48.60;;;;;;5094602;28;20497;-57
2023/05/23 11:02:01;;;;;;;6.30;4.90;;;26.30;48.00;;;;;;5094659;28;20448;-57
2023/05/23 11:04:29;;;;;;;8.80;5.50;;;26.10;49.30;;;;;;5096916;28;20502;-57
2023/05/23 11:06:57;;;;;;;7.07;4.90;;;25.80;49.70;;;;;;5096760;28;20448;-57
2023/05/23 11:09:24;;;;;;;8.03;5.73;;;25.50;49.90;;;;;;5095480;28;20483;-57
2023/05/23 11:11:56;;;;;;;11.47;6.30;;;25.20;49.50;;;;;;5094154;28;20482;-57
2023/05/23 11:14:33;;;;;;;8.40;5.50;;;24.70;50.30;;;;;;5094410;28;20448;-57
2023/05/23 11:17:00;;;;;;;9.03;5.53;;;24.40;51.70;;;;;;5094323;28;20492;-56
2023/05/23 11:19:28;;;;;;;10.10;5.87;;;24.20;52.70;;;;;;5095073;28;20436;-57
2023/05/23 11:21:59;;;;;;;10.23;5.67;;;24.10;52.00;;;;;;5095398;28;20454;-56
2023/05/23 11:24:47;;;;;;;7.23;5.00;;;23.80;52.70;;;;;;5094875;28;20460;-56
2023/05/23 11:27:14;;;;;;;10.03;6.27;;;23.60;54.20;;;;;;5094349;28;20446;-56
2023/05/23 11:29:41;;;;;;;7.97;5.70;;;23.50;55.10;;;;;;5094055;28;20487;-56
2023/05/23 11:32:11;;;;;;;8.73;5.90;;;23.50;55.50;;;;;;5094140;28;20451;-56
2023/05/23 11:34:38;;;;;;;10.70;5.60;;;23.50;54.60;;;;;;5094049;28;20448;-56
2023/05/23 11:37:06;;;;;;;7.50;5.53;;;23.40;54.90;;;;;;5093999;28;20444;-56
2023/05/23 11:39:33;;;;;;;12.13;5.40;;;23.30;54.80;;;;;;5093928;28;20443;-56
2023/05/23 11:42:00;;;;;;;6.57;4.73;;;23.20;54.00;;;;;;5093694;28;20967;-56
2023/05/23 11:44:27;;;;;;;8.10;4.40;;;23.30;55.10;;;;;;5093916;28;20475;-57
2023/05/23 11:47:01;;;;;;;8.00;4.13;;;23.40;55.40;;;;;;5093788;28;20454;-57
2023/05/23 11:49:29;;;;;;;6.37;3.80;;;23.90;55.60;;;;;;5093738;28;20475;-57
2023/05/23 11:51:56;;;;;;;4.50;3.00;;;24.70;52.60;;;;;;5093831;28;20868;-57
2023/05/23 11:54:25;;;;;;;4.80;3.70;;;26.00;50.80;;;;;;5093645;28;20571;-57
2023/05/23 11:56:52;;;;;;;6.63;3.40;;;27.00;48.30;;;;;;5093660;28;20554;-57
2023/05/23 11:59:19;;;;;;;6.17;3.27;;;27.70;45.60;;;;;;5093800;28;20455;-57
2023/05/23 12:01:46;;;;;;;6.10;3.53;;;28.00;43.90;;;;;;5093603;28;20447;-56
2023/05/23 12:04:12;;;;;;;6.10;2.63;;;28.00;43.50;;;;;;5093326;28;20447;-56
2023/05/23 12:06:40;;;;;;;5.73;3.40;;;27.80;43.40;;;;;;5093715;28;20497;-57
2023/05/23 12:09:07;;;;;;;8.70;3.13;;;27.70;43.60;;;;;;5093635;28;20900;-57
2023/05/23 12:11:35;;;;;;;5.10;3.17;;;27.50;43.30;;;;;;5093428;28;20464;-56
2023/05/23 12:14:05;;;;;;;5.90;3.10;;;27.20;42.90;;;;;;5094069;28;20956;-57
2023/05/23 12:16:32;;;;;;;7.00;3.03;;;26.90;43.30;;;;;;5093453;28;20468;-57
2023/05/23 12:19:00;;;;;;;5.93;3.03;;;26.60;44.20;;;;;;5093547;28;20448;-57
2023/05/23 12:21:27;;;;;;;5.83;2.80;;;26.20;44.50;;;;;;5093466;28;20456;-57
2023/05/23 12:23:54;;;;;;;5.40;3.07;;;26.40;45.50;;;;;;5093455;28;20471;-57
2023/05/23 12:26:21;;;;;;;5.90;3.33;;;26.80;43.40;;;;;;5093287;28;20491;-57
2023/05/23 12:28:50;;;;;;;4.43;2.70;;;27.30;42.30;;;;;;5093021;28;21024;-57
2023/05/23 12:31:18;;;;;;;6.67;2.57;;;28.10;42.30;;;;;;5093355;28;20451;-57
2023/05/23 12:33:47;;;;;;;6.67;3.20;;;29.10;39.10;;;;;;5092925;28;20956;-57
2023/05/23 12:36:14;;;;;;;5.13;3.20;;;29.70;37.80;;;;;;5093242;28;20539;-57
2023/05/23 12:38:44;;;;;;;6.07;3.03;;;30.00;36.10;;;;;;5093329;28;20447;-57
2023/05/23 12:41:12;;;;;;;5.33;3.30;;;29.90;35.30;;;;;;5093118;28;20945;-57
2023/05/23 12:43:39;;;;;;;6.53;3.20;;;30.00;36.10;;;;;;5093193;28;20448;-57
2023/05/23 12:46:08;;;;;;;7.00;3.50;;;30.00;35.90;;;;;;5093107;28;20475;-57